Time;durP1;ratioP1;P1;durP2;ratioP2;P2;SDS_P1;SDS_P2;PMS_P1;PMS_P2;Temp;Humidity;BMP_temperature;BMP_pressure;BME280_temperature;BME280_humidity;BME280_pressure;Samples;Min_cycle;Max_cycle;Signal;HPM_P1;HPM_P2
2022/04/27 00:00:39;;;;;;;5.63;2.40;;;;;;;16.17;61.00;101171.97;2607414;22;20225;-67
2022/04/27 00:01:39;;;;;;;4.40;2.30;;;;;;;16.19;60.95;101175.88;2607880;22;20228;-67
2022/04/27 00:02:40;;;;;;;4.30;2.67;;;;;;;16.23;61.16;101170.94;2608016;22;20438;-67
2022/04/27 00:03:41;;;;;;;4.67;2.40;;;;;;;16.00;60.99;101128.72;2607886;22;20406;-67
2022/04/27 00:04:41;;;;;;;4.50;2.60;;;;;;;16.17;60.62;101149.59;2608047;22;20478;-67
2022/04/27 00:05:42;;;;;;;4.80;2.20;;;;;;;16.32;60.69;101165.41;2607923;22;20188;-67
2022/04/27 00:06:43;;;;;;;5.97;2.30;;;;;;;16.35;60.55;101174.88;2593960;22;20162;-67
2022/04/27 00:07:43;;;;;;;4.67;2.20;;;;;;;16.36;60.30;101176.44;2594588;22;20442;-67
2022/04/27 00:08:44;;;;;;;5.53;2.40;;;;;;;16.36;60.17;101174.44;2607761;22;20184;-67
2022/04/27 00:09:44;;;;;;;4.17;2.50;;;;;;;15.69;60.21;101072.00;2608041;22;20204;-67
2022/04/27 00:10:45;;;;;;;3.90;2.37;;;;;;;15.82;60.23;101095.03;2607266;22;20146;-67
2022/04/27 00:11:45;;;;;;;4.77;2.57;;;;;;;16.33;60.44;101172.53;2608254;22;20150;-67
2022/04/27 00:12:47;;;;;;;5.77;2.30;;;;;;;16.41;60.69;101175.88;2607935;22;20204;-67
2022/04/27 00:13:47;;;;;;;6.57;2.50;;;;;;;16.11;60.52;101143.84;2607889;22;20759;-67
2022/04/27 00:14:48;;;;;;;6.17;2.70;;;;;;;16.37;60.16;101164.00;2608039;22;20726;-67
2022/04/27 00:15:48;;;;;;;12.00;3.17;;;;;;;16.49;60.23;101186.31;2607675;22;20516;-67
2022/04/27 00:16:49;;;;;;;10.80;3.50;;;;;;;16.53;60.16;101186.97;2607498;22;20158;-67
2022/04/27 00:17:50;;;;;;;9.80;3.03;;;;;;;16.50;60.03;101182.28;2608296;22;20190;-67
2022/04/27 00:18:50;;;;;;;7.73;2.53;;;;;;;16.48;59.93;101187.56;2607691;22;20150;-67
2022/04/27 00:19:51;;;;;;;5.30;2.57;;;;;;;16.28;60.10;101166.75;2608171;22;20150;-67
2022/04/27 00:20:52;;;;;;;9.07;2.70;;;;;;;16.47;59.83;101184.47;2607373;22;20486;-67
2022/04/27 00:21:52;;;;;;;7.23;2.13;;;;;;;16.29;60.17;101157.16;2608396;22;20170;-67
2022/04/27 00:22:53;;;;;;;4.17;2.50;;;;;;;16.52;59.99;101183.88;2607814;22;20485;-67
2022/04/27 00:23:54;;;;;;;6.37;2.60;;;;;;;16.52;59.76;101189.47;2607774;22;20225;-67
2022/04/27 00:24:56;;;;;;;3.83;2.30;;;;;;;16.52;59.75;101191.00;2607724;22;20187;-67
2022/04/27 00:25:57;;;;;;;9.57;2.80;;;;;;;16.51;59.83;101191.47;2608166;22;20669;-67
2022/04/27 00:26:58;;;;;;;9.63;2.77;;;;;;;16.52;60.04;101189.47;2607495;22;20749;-67
2022/04/27 00:27:58;;;;;;;5.77;2.47;;;;;;;16.29;59.91;101157.16;2608403;22;20490;-67
2022/04/27 00:28:59;;;;;;;3.37;2.10;;;;;;;16.48;59.91;101186.00;2607376;22;20225;-67
2022/04/27 00:29:59;;;;;;;2.87;1.90;;;;;;;16.39;60.34;101189.56;2608290;22;20154;-67
2022/04/27 00:31:00;;;;;;;5.23;2.30;;;;;;;16.37;60.33;101186.38;2607257;22;20185;-67
2022/04/27 00:32:01;;;;;;;4.47;2.37;;;;;;;16.23;60.59;101189.72;2608279;22;20150;-67
2022/04/27 00:33:01;;;;;;;3.27;2.40;;;;;;;16.18;60.73;101184.75;2607794;22;20195;-67
2022/04/27 00:34:02;;;;;;;6.77;2.20;;;;;;;16.13;60.98;101188.13;2607801;22;20195;-67
2022/04/27 00:35:05;;;;;;;3.90;2.23;;;;;;;15.76;61.10;101147.97;2607449;22;20154;-67
2022/04/27 00:36:06;;;;;;;5.03;2.33;;;;;;;15.25;61.03;101074.00;2607952;22;20403;-67
2022/04/27 00:37:06;;;;;;;4.00;2.20;;;;;;;16.03;60.90;101184.47;2607357;22;20391;-67
2022/04/27 00:38:07;;;;;;;4.63;2.67;;;;;;;15.86;61.45;101169.16;2608419;22;20149;-67
2022/04/27 00:39:07;;;;;;;4.17;2.37;;;;;;;16.02;61.17;101182.13;2607453;22;20146;-67
2022/04/27 00:40:08;;;;;;;4.40;2.60;;;;;;;15.94;60.93;101181.63;2607470;22;20143;-67
2022/04/27 00:41:09;;;;;;;2.67;2.00;;;;;;;15.88;60.86;101177.84;2607906;22;20200;-67
2022/04/27 00:42:17;;;;;;;5.50;2.70;;;;;;;15.42;60.87;101102.56;2594387;22;20475;-67
2022/04/27 00:43:34;;;;;;;4.00;2.37;;;;;;;15.94;60.38;101178.06;2595644;22;20169;-67
2022/04/27 00:44:36;;;;;;;3.70;2.20;;;;;;;15.90;60.11;101183.78;2608134;22;20716;-67
2022/04/27 00:45:36;;;;;;;4.17;2.07;;;;;;;15.88;60.20;101179.88;2607388;22;20439;-67
2022/04/27 00:46:37;;;;;;;3.50;1.90;;;;;;;15.34;59.96;101096.44;2607560;22;20384;-67
2022/04/27 00:47:37;;;;;;;5.20;2.20;;;;;;;15.76;59.85;101153.56;2608255;22;20151;-67
2022/04/27 00:48:41;;;;;;;3.63;2.10;;;;;;;15.90;60.54;101183.78;2608117;22;20170;-67
2022/04/27 00:49:46;;;;;;;3.33;2.17;;;;;;;15.77;60.48;101159.94;2607859;22;20165;-67
2022/04/27 00:50:47;;;;;;;3.37;2.10;;;;;;;15.90;60.92;101183.00;2607204;22;20432;-67
2022/04/27 00:51:49;;;;;;;3.13;2.10;;;;;;;15.92;61.04;101183.31;2608181;22;20377;-67
2022/04/27 00:52:51;;;;;;;6.00;2.27;;;;;;;15.91;61.20;101176.94;2593951;22;20151;-67
2022/04/27 00:53:52;;;;;;;5.23;2.40;;;;;;;15.55;61.27;101140.34;2594523;22;20381;-67
2022/04/27 00:54:53;;;;;;;5.83;2.20;;;;;;;15.87;61.23;101172.72;2607712;22;20400;-67
2022/04/27 00:55:54;;;;;;;3.43;1.90;;;;;;;15.58;61.63;101122.66;2607697;22;20177;-67
2022/04/27 00:56:54;;;;;;;5.47;2.50;;;;;;;15.90;61.35;101167.00;2593703;22;20476;-67
2022/04/27 00:57:55;;;;;;;4.67;2.10;;;;;;;15.90;61.86;101174.59;2594715;22;20182;-67
2022/04/27 00:58:55;;;;;;;4.80;2.17;;;;;;;15.82;61.64;101157.31;2607340;22;20180;-67
2022/04/27 00:59:56;;;;;;;5.43;2.20;;;;;;;15.72;61.52;101152.91;2594444;22;20235;-67
2022/04/27 01:00:57;;;;;;;28.70;3.50;;;;;;;15.89;61.43;101170.25;2593520;22;20532;-67
2022/04/27 01:01:57;;;;;;;6.90;2.40;;;;;;;15.91;61.55;101182.53;2608322;22;20149;-67
2022/04/27 01:02:58;;;;;;;14.23;2.70;;;;;;;15.91;61.60;101176.94;2607672;22;20546;-67
2022/04/27 01:03:59;;;;;;;13.30;2.47;;;;;;;15.35;61.33;101105.56;2594153;22;20162;-67
2022/04/27 01:04:59;;;;;;;8.20;2.53;;;;;;;15.86;61.42;101171.16;2593948;22;20163;-67
2022/04/27 01:06:02;;;;;;;14.70;2.60;;;;;;;15.71;61.54;101147.75;2608119;22;20198;-67
2022/04/27 01:07:04;;;;;;;9.93;2.87;;;;;;;15.61;61.36;101138.53;2607119;22;20284;-67
2022/04/27 01:08:04;;;;;;;14.53;2.83;;;;;;;15.47;61.72;101110.34;2608145;22;20694;-67
2022/04/27 01:09:06;;;;;;;11.83;2.67;;;;;;;15.90;61.51;101175.41;2607237;22;20480;-67
2022/04/27 01:10:09;;;;;;;10.07;3.00;;;;;;;15.94;61.70;101178.06;2607370;22;20177;-67
2022/04/27 01:11:09;;;;;;;17.67;3.13;;;;;;;15.91;61.43;101181.75;2607774;22;20405;-67
2022/04/27 01:12:10;;;;;;;13.50;3.40;;;;;;;15.84;61.57;101179.22;2608088;22;20384;-67
2022/04/27 01:13:12;;;;;;;18.50;3.57;;;;;;;15.60;61.27;101145.38;2607814;22;20185;-67
2022/04/27 01:14:12;;;;;;;20.13;3.73;;;;;;;15.84;61.50;101180.00;2607518;22;20148;-67
2022/04/27 01:15:32;;;;;;;14.07;3.63;;;;;;;15.53;61.40;101133.66;2607317;22;20384;-67
2022/04/27 01:16:33;;;;;;;21.83;4.47;;;;;;;15.52;61.26;101127.28;2607648;22;20144;-67
2022/04/27 01:17:33;;;;;;;22.50;4.20;;;;;;;15.91;60.92;101165.78;2593918;22;20478;-67
2022/04/27 01:18:34;;;;;;;17.10;4.03;;;;;;;15.95;61.18;101179.59;2594658;22;20149;-67
2022/04/27 01:19:35;;;;;;;19.30;4.13;;;;;;;15.94;60.86;101170.44;2607545;22;20251;-67
2022/04/27 01:20:36;;;;;;;16.93;3.57;;;;;;;15.96;60.76;101173.56;2607318;22;20148;-67
2022/04/27 01:21:37;;;;;;;14.30;3.73;;;;;;;15.97;60.64;101172.31;2607881;22;20200;-67
2022/04/27 01:22:37;;;;;;;20.70;3.43;;;;;;;15.96;60.60;101175.56;2607562;22;20828;-67
2022/04/27 01:23:39;;;;;;;24.73;4.03;;;;;;;15.69;61.02;101139.06;2607564;22;20538;-67
2022/04/27 01:24:40;;;;;;;14.73;4.17;;;;;;;15.90;60.93;101174.59;2594101;22;20158;-67
2022/04/27 01:26:06;;;;;;;10.73;3.23;;;;;;;15.91;61.08;101176.16;2594263;22;20375;-67
2022/04/27 01:27:06;;;;;;;15.73;3.40;;;;;;;15.87;60.94;101173.50;2593714;22;20377;-67
2022/04/27 01:28:09;;;;;;;14.73;3.70;;;;;;;15.55;61.04;101122.81;2594613;22;20404;-67
2022/04/27 01:29:10;;;;;;;19.57;4.57;;;;;;;15.41;61.05;101104.56;2593641;22;20223;-67
2022/04/27 01:30:10;;;;;;;24.47;3.93;;;;;;;15.43;60.91;101113.25;2580987;23;20390;-67
2022/04/27 01:31:11;;;;;;;15.33;3.40;;;;;;;15.82;60.86;101168.50;2594302;22;20146;-67
2022/04/27 01:32:12;;;;;;;14.80;3.43;;;;;;;15.93;60.64;101190.47;2594210;22;20154;-67
2022/04/27 01:33:13;;;;;;;21.47;3.50;;;;;;;15.90;60.93;101183.00;2594124;22;20433;-67
2022/04/27 01:34:14;;;;;;;13.43;3.30;;;;;;;15.88;60.58;101183.44;2607675;22;20150;-67
2022/04/27 01:35:14;;;;;;;11.13;3.20;;;;;;;15.86;60.69;101185.91;2607346;22;20473;-67
2022/04/27 01:36:15;;;;;;;9.07;3.20;;;;;;;15.84;60.90;101185.56;2593566;22;20152;-67
2022/04/27 01:38:40;;;;;;;10.73;3.30;;;;;;;15.81;60.96;101183.72;2556161;23;20179;-67
2022/04/27 01:39:41;;;;;;;8.30;2.70;;;;;;;15.76;60.94;101180.72;2602857;22;20472;-67
2022/04/27 01:40:41;;;;;;;11.57;3.13;;;;;;;15.74;61.04;101178.38;2607048;22;20916;-67
2022/04/27 01:41:42;;;;;;;9.40;3.17;;;;;;;15.74;61.10;101178.38;2608007;22;20165;-67
2022/04/27 01:42:42;;;;;;;8.70;2.73;;;;;;;15.71;61.35;101175.69;2607581;22;20157;-67
2022/04/27 01:43:43;;;;;;;15.50;3.03;;;;;;;15.70;61.23;101177.72;2607530;22;20150;-67
2022/04/27 01:44:43;;;;;;;11.13;2.90;;;;;;;15.69;61.14;101184.56;2607579;22;20149;-67
2022/04/27 01:45:44;;;;;;;9.70;2.77;;;;;;;15.67;61.33;101178.63;2607303;22;20156;-67
2022/04/27 01:46:44;;;;;;;10.50;2.67;;;;;;;15.67;61.66;101178.63;2593539;22;20162;-67
2022/04/27 01:47:45;;;;;;;13.20;3.00;;;;;;;15.38;61.68;101132.59;2594418;22;20147;-67
2022/04/27 01:48:45;;;;;;;11.97;2.90;;;;;;;15.63;62.08;101177.97;2607335;22;20201;-67
2022/04/27 01:49:46;;;;;;;16.47;4.57;;;;;;;15.64;61.79;101181.56;2594212;22;20157;-67
2022/04/27 01:50:46;;;;;;;18.40;3.70;;;;;;;15.62;61.48;101181.22;2593442;22;20589;-67
2022/04/27 01:54:25;;;;;;;14.73;3.10;;;;;;;15.44;61.46;101178.28;2608062;22;20828;-67
2022/04/27 01:55:25;;;;;;;22.67;3.93;;;;;;;15.36;61.67;101174.94;2607120;22;20718;-67
2022/04/27 01:56:26;;;;;;;16.80;4.10;;;;;;;15.35;61.72;101178.19;2607376;22;20151;-67
2022/04/27 01:57:26;;;;;;;20.73;3.57;;;;;;;14.93;61.97;101118.97;2607566;22;20436;-67
2022/04/27 01:58:27;;;;;;;14.37;3.20;;;;;;;15.28;62.27;101184.00;2607944;22;20917;-67
2022/04/27 01:59:27;;;;;;;18.80;3.90;;;;;;;15.24;62.36;101177.75;2607223;22;20150;-67
2022/04/27 02:00:28;;;;;;;12.63;3.80;;;;;;;15.23;62.19;101178.97;2607185;22;20154;-67
2022/04/27 02:01:28;;;;;;;8.03;2.93;;;;;;;15.19;62.33;101179.09;2607656;22;20605;-67
2022/04/27 02:02:29;;;;;;;13.10;3.10;;;;;;;15.06;62.54;101180.38;2608056;22;20622;-67
2022/04/27 02:03:29;;;;;;;10.67;3.63;;;;;;;15.08;62.57;101178.69;2607140;22;20153;-67
2022/04/27 02:04:30;;;;;;;11.50;3.50;;;;;;;15.02;62.50;101172.09;2607828;22;20185;-67
2022/04/27 02:05:31;;;;;;;15.20;3.60;;;;;;;15.03;62.70;101182.03;2607124;22;20163;-67
2022/04/27 02:06:35;;;;;;;9.33;3.23;;;;;;;14.93;63.05;101185.16;2607181;22;20164;-67
2022/04/27 02:07:36;;;;;;;12.13;3.50;;;;;;;14.74;62.91;101149.91;2607502;22;20195;-67
2022/04/27 02:08:36;;;;;;;12.93;3.63;;;;;;;14.98;62.99;101188.19;2607905;22;20520;-67
2022/04/27 02:09:37;;;;;;;14.87;3.90;;;;;;;14.97;62.94;101186.59;2593395;22;20215;-67
2022/04/27 02:10:38;;;;;;;9.73;3.60;;;;;;;14.65;62.64;101145.00;2593401;22;20153;-67
2022/04/27 02:11:38;;;;;;;11.50;3.67;;;;;;;14.89;62.74;101188.09;2607689;22;20147;-67
2022/04/27 02:12:39;;;;;;;15.53;4.00;;;;;;;14.51;62.71;101123.16;2607547;22;20374;-67
2022/04/27 02:13:39;;;;;;;14.00;4.00;;;;;;;14.89;62.75;101188.09;2607376;22;20221;-67
2022/04/27 02:14:40;;;;;;;15.40;4.30;;;;;;;14.88;62.67;101186.53;2607699;22;20563;-67
2022/04/27 02:15:40;;;;;;;10.00;3.40;;;;;;;14.81;62.52;101172.03;2593662;22;20249;-67
2022/04/27 02:16:41;;;;;;;11.63;4.07;;;;;;;14.87;62.49;101189.75;2593297;22;20226;-67
2022/04/27 02:17:41;;;;;;;14.43;3.80;;;;;;;14.84;62.72;101194.22;2607754;22;20148;-67
2022/04/27 02:18:42;;;;;;;12.03;3.60;;;;;;;14.83;62.52;101197.47;2607329;22;20182;-67
2022/04/27 02:19:42;;;;;;;12.97;4.20;;;;;;;14.83;62.79;101195.47;2607645;22;20173;-67
2022/04/27 02:20:43;;;;;;;9.37;3.67;;;;;;;14.72;62.66;101194.22;2606987;22;20173;-67
2022/04/27 02:21:43;;;;;;;13.80;4.13;;;;;;;14.78;62.83;101204.38;2607594;22;20147;-67
2022/04/27 02:22:44;;;;;;;7.73;3.50;;;;;;;14.67;63.03;101183.63;2607057;22;20198;-67
2022/04/27 02:23:45;;;;;;;6.40;3.57;;;;;;;14.72;62.96;101197.81;2607434;22;20153;-67
2022/04/27 02:24:45;;;;;;;12.70;4.23;;;;;;;14.72;63.13;101202.59;2607543;22;20157;-67
2022/04/27 02:25:46;;;;;;;5.50;3.33;;;;;;;14.61;63.20;101200.13;2593646;22;20151;-67
2022/04/27 02:26:47;;;;;;;10.50;3.00;;;;;;;14.58;63.19;101197.47;2593576;22;20156;-67
2022/04/27 02:27:49;;;;;;;14.03;3.43;;;;;;;14.51;63.14;101197.69;2594205;22;20471;-67
2022/04/27 02:28:50;;;;;;;6.70;3.10;;;;;;;14.48;63.21;101193.00;2593824;22;20150;-67
2022/04/27 02:29:51;;;;;;;8.60;3.20;;;;;;;14.45;63.01;101196.69;2607659;22;20799;-67
2022/04/27 02:30:51;;;;;;;8.10;3.40;;;;;;;14.36;63.06;101191.78;2606881;22;20380;-67
2022/04/27 02:31:52;;;;;;;6.80;3.30;;;;;;;14.37;63.27;101195.31;2607813;22;20169;-67
2022/04/27 02:32:52;;;;;;;5.53;3.03;;;;;;;14.35;63.53;101198.56;2607432;22;20157;-67
2022/04/27 02:33:53;;;;;;;10.37;3.30;;;;;;;14.32;63.49;101199.44;2607262;22;20493;-67
2022/04/27 02:34:53;;;;;;;7.30;3.27;;;;;;;14.28;63.55;101204.34;2607241;22;20176;-67
2022/04/27 02:35:54;;;;;;;8.23;3.80;;;;;;;14.20;63.63;101197.41;2607517;22;20674;-67
2022/04/27 02:36:54;;;;;;;5.47;2.93;;;;;;;13.47;63.81;101099.25;2606951;22;20592;-67
2022/04/27 02:37:55;;;;;;;7.83;3.23;;;;;;;13.67;64.33;101134.06;2607924;22;20183;-67
2022/04/27 02:38:56;;;;;;;11.13;3.07;;;;;;;14.11;64.25;101205.63;2606916;22;20158;-67
2022/04/27 02:39:57;;;;;;;9.13;3.00;;;;;;;13.85;64.56;101181.72;2594095;22;20156;-67
2022/04/27 02:40:58;;;;;;;12.23;3.33;;;;;;;13.82;64.72;101174.22;2593399;22;20158;-67
2022/04/27 02:41:59;;;;;;;9.00;3.33;;;;;;;13.93;64.93;101194.19;2607921;22;20375;-67
2022/04/27 02:42:59;;;;;;;6.37;2.83;;;;;;;13.51;65.33;101156.41;2593651;22;20251;-67
2022/04/27 02:44:00;;;;;;;4.30;3.00;;;;;;;13.81;65.33;101205.28;2593904;22;20462;-67
2022/04/27 02:45:00;;;;;;;3.10;2.60;;;;;;;13.32;65.54;101140.59;2607179;22;20206;-67
2022/04/27 02:46:01;;;;;;;3.10;2.53;;;;;;;13.72;65.68;101203.16;2607495;22;20147;-67
2022/04/27 02:47:02;;;;;;;5.20;2.60;;;;;;;13.70;65.90;101210.38;2606783;22;20226;-67
2022/04/27 02:48:03;;;;;;;4.80;2.83;;;;;;;13.67;66.09;101214.03;2607692;22;20380;-67
2022/04/27 02:51:54;;;;;;;3.90;2.87;;;;;;;13.56;66.40;101208.75;2607814;22;20361;-67
2022/04/27 02:52:54;;;;;;;6.30;2.90;;;;;;;13.48;66.61;101198.25;2593500;22;20442;-67
2022/04/27 02:53:55;;;;;;;4.00;2.77;;;;;;;13.29;66.54;101168.53;2593706;22;20381;-67
2022/04/27 02:54:55;;;;;;;5.97;3.23;;;;;;;13.59;66.79;101221.03;2607112;22;20231;-67
2022/04/27 02:55:56;;;;;;;15.63;3.80;;;;;;;13.52;66.80;101215.66;2607532;22;20507;-67
2022/04/27 02:56:56;;;;;;;10.73;4.50;;;;;;;13.50;66.74;101223.66;2606884;22;20555;-67
2022/04/27 02:57:56;;;;;;;11.33;3.37;;;;;;;13.50;66.90;101218.88;2607895;22;20224;-67
2022/04/27 02:58:58;;;;;;;11.40;3.67;;;;;;;13.42;66.86;101214.69;2606871;22;20213;-67
2022/04/27 02:59:58;;;;;;;6.37;4.10;;;;;;;13.53;66.70;101225.56;2607917;22;20152;-67
2022/04/27 03:00:59;;;;;;;6.80;4.00;;;;;;;12.96;67.34;101147.53;2606475;22;20389;-67
2022/04/27 03:02:00;;;;;;;9.93;3.93;;;;;;;13.53;67.32;101228.34;2594271;22;20192;-67
2022/04/27 03:03:01;;;;;;;8.40;3.80;;;;;;;13.56;67.18;101233.81;2594016;22;20153;-67
2022/04/27 03:04:01;;;;;;;10.03;3.53;;;;;;;13.57;67.17;101232.59;2593673;22;20392;-67
2022/04/27 03:05:02;;;;;;;10.27;4.00;;;;;;;13.60;66.84;101240.09;2593745;22;20202;-67
2022/04/27 03:06:02;;;;;;;10.03;4.50;;;;;;;13.11;66.70;101152.28;2607790;22;20480;-67
2022/04/27 03:07:03;;;;;;;17.77;4.90;;;;;;;13.59;66.72;101238.53;2606911;22;20500;-67
2022/04/27 03:08:04;;;;;;;19.57;5.50;;;;;;;13.60;66.60;101228.16;2607724;22;20149;-67
2022/04/27 03:09:05;;;;;;;15.37;4.93;;;;;;;13.64;66.60;101237.22;2593220;22;20479;-67
2022/04/27 03:10:06;;;;;;;11.33;3.70;;;;;;;13.62;66.39;101232.06;2593309;22;20240;-67
2022/04/27 03:11:07;;;;;;;11.23;3.77;;;;;;;12.95;66.58;101143.94;2593799;22;20149;-67
2022/04/27 03:12:08;;;;;;;8.33;3.43;;;;;;;13.65;66.47;101235.97;2607768;22;20376;-67
2022/04/27 03:13:08;;;;;;;9.20;4.03;;;;;;;13.33;66.40;101194.28;2607317;22;20502;-67
2022/04/27 03:14:09;;;;;;;9.20;3.90;;;;;;;13.20;66.52;101174.72;2607267;22;20481;-67
2022/04/27 03:15:09;;;;;;;11.40;4.73;;;;;;;13.66;66.45;101246.69;2607130;22;20175;-67
2022/04/27 03:16:10;;;;;;;16.97;4.93;;;;;;;13.67;66.64;101251.03;2607073;22;20170;-67
2022/04/27 03:17:10;;;;;;;17.53;5.10;;;;;;;13.67;66.71;101253.81;2607287;22;20151;-67
2022/04/27 03:18:17;;;;;;;15.53;5.13;;;;;;;13.22;66.52;101180.63;2607487;22;20170;-67
2022/04/27 03:19:18;;;;;;;15.10;4.33;;;;;;;13.34;66.70;101218.09;2606982;22;20540;-67
2022/04/27 03:20:18;;;;;;;14.27;4.30;;;;;;;13.59;66.37;101257.22;2607074;22;20387;-67
2022/04/27 03:21:18;;;;;;;13.60;3.87;;;;;;;13.15;66.11;101188.38;2607561;22;20279;-67
2022/04/27 03:22:19;;;;;;;14.17;4.30;;;;;;;13.53;66.36;101261.78;2607097;22;20210;-67
2022/04/27 03:23:19;;;;;;;14.63;4.60;;;;;;;13.44;66.26;101253.25;2606877;22;20214;-67
2022/04/27 03:24:20;;;;;;;18.10;5.00;;;;;;;13.46;66.19;101265.50;2607762;22;20148;-67
2022/04/27 03:25:20;;;;;;;12.00;4.47;;;;;;;13.30;65.95;101239.69;2606893;22;20160;-67
2022/04/27 03:26:21;;;;;;;8.97;4.37;;;;;;;13.21;65.77;101222.84;2607259;22;20282;-67
2022/04/27 03:27:21;;;;;;;12.67;4.93;;;;;;;13.47;65.87;101269.09;2607245;22;20146;-67
2022/04/27 03:28:22;;;;;;;9.73;4.37;;;;;;;13.42;65.93;101261.25;2607737;22;20156;-67
2022/04/27 03:29:22;;;;;;;6.77;4.20;;;;;;;12.72;66.55;101151.69;2606749;22;20243;-67
2022/04/27 03:30:23;;;;;;;13.77;4.50;;;;;;;13.45;66.69;101272.31;2606835;22;20622;-67
2022/04/27 03:31:23;;;;;;;10.07;4.60;;;;;;;13.21;66.35;101259.78;2607450;22;20151;-67
2022/04/27 03:32:24;;;;;;;24.50;6.93;;;;;;;13.18;66.49;101293.28;2607656;22;20146;-67
2022/04/27 03:33:25;;;;;;;9.53;4.90;;;;;;;13.15;67.50;101275.44;2606760;22;20200;-67
2022/04/27 03:34:25;;;;;;;10.53;4.77;;;;;;;13.14;67.80;101276.66;2607588;22;20147;-67
2022/04/27 03:35:26;;;;;;;7.33;4.00;;;;;;;12.85;68.16;101227.63;2607216;22;20505;-67
2022/04/27 03:36:27;;;;;;;8.70;3.80;;;;;;;13.18;68.40;101276.56;2607797;22;20200;-67
2022/04/27 03:37:27;;;;;;;7.90;3.37;;;;;;;12.77;68.30;101199.22;2608122;22;20178;-67
2022/04/27 03:38:28;;;;;;;5.43;3.60;;;;;;;13.15;68.35;101271.84;2608552;22;20151;-66
2022/04/27 03:39:28;;;;;;;10.07;4.47;;;;;;;12.56;68.39;101196.16;2594120;22;20159;-66
2022/04/27 03:40:29;;;;;;;9.93;4.03;;;;;;;12.95;68.55;101271.91;2594311;22;20152;-66
2022/04/27 03:41:30;;;;;;;9.47;3.70;;;;;;;13.15;68.86;101294.13;2608149;22;20151;-66
2022/04/27 03:42:30;;;;;;;7.80;4.10;;;;;;;13.18;68.57;101282.13;2608463;22;20157;-67
2022/04/27 03:43:31;;;;;;;7.93;3.67;;;;;;;13.21;68.37;101281.28;2607531;22;20403;-67
2022/04/27 03:44:31;;;;;;;6.93;3.40;;;;;;;13.04;68.25;101243.50;2608399;22;20192;-67
2022/04/27 03:45:32;;;;;;;4.90;2.57;;;;;;;13.04;67.98;101241.53;2607557;22;20227;-67
2022/04/27 03:46:32;;;;;;;6.80;2.90;;;;;;;13.39;67.85;101281.63;2607991;22;20743;-67
2022/04/27 03:47:33;;;;;;;9.30;3.23;;;;;;;13.29;67.76;101274.31;2608146;22;20499;-67
2022/04/27 03:48:33;;;;;;;6.13;3.30;;;;;;;13.44;67.70;101295.00;2608517;22;20150;-67
2022/04/27 03:49:34;;;;;;;9.40;2.93;;;;;;;13.01;67.63;101214.56;2594096;22;20220;-67
2022/04/27 03:50:35;;;;;;;6.13;3.00;;;;;;;13.35;67.33;101265.00;2593936;22;20157;-67
2022/04/27 03:51:36;;;;;;;6.77;3.27;;;;;;;13.18;67.26;101223.69;2594295;22;20238;-67
2022/04/27 03:52:36;;;;;;;6.27;3.00;;;;;;;13.60;67.49;101278.28;2594700;22;20381;-67
2022/04/27 03:53:37;;;;;;;8.40;3.43;;;;;;;13.76;67.25;101298.56;2607786;22;20150;-67
2022/04/27 03:54:37;;;;;;;7.30;3.60;;;;;;;13.76;67.16;101294.97;2608360;22;20495;-67
2022/04/27 03:55:38;;;;;;;5.50;2.90;;;;;;;13.80;67.00;101292.88;2607808;22;20196;-67
2022/04/27 03:56:38;;;;;;;6.50;2.93;;;;;;;13.83;66.75;101300.38;2607792;22;20233;-67
2022/04/27 03:57:39;;;;;;;9.30;3.17;;;;;;;13.74;66.85;101281.47;2608433;22;20147;-67
2022/04/27 03:58:39;;;;;;;6.70;3.20;;;;;;;13.60;66.85;101253.22;2608184;22;20648;-67
2022/04/27 03:59:40;;;;;;;6.30;2.80;;;;;;;13.84;66.58;101285.22;2608111;22;20174;-67
2022/04/27 04:00:40;;;;;;;6.53;3.07;;;;;;;14.02;66.08;101303.03;2607664;22;20548;-67
2022/04/27 04:01:41;;;;;;;5.37;2.80;;;;;;;13.94;66.19;101293.28;2608343;22;20150;-67
2022/04/27 04:02:41;;;;;;;5.40;2.90;;;;;;;14.07;66.26;101296.91;2607919;22;20149;-67
2022/04/27 04:03:41;;;;;;;6.37;2.93;;;;;;;14.02;65.79;101291.88;2607916;22;20371;-67
2022/04/27 04:04:42;;;;;;;5.83;2.83;;;;;;;13.89;65.87;101268.75;2608078;22;20154;-67
2022/04/27 04:05:43;;;;;;;7.17;3.23;;;;;;;14.19;65.77;101307.34;2607710;22;20221;-67
2022/04/27 04:06:43;;;;;;;12.10;3.20;;;;;;;14.25;65.52;101310.41;2607644;22;20604;-67
2022/04/27 04:07:44;;;;;;;11.67;3.40;;;;;;;14.28;65.72;101313.06;2608321;22;20147;-67
2022/04/27 04:08:44;;;;;;;13.67;3.87;;;;;;;14.31;65.54;101311.41;2607548;22;20204;-67
2022/04/27 04:09:45;;;;;;;17.83;4.10;;;;;;;14.33;65.51;101314.53;2594599;22;20159;-67
2022/04/27 04:10:46;;;;;;;14.90;4.10;;;;;;;14.06;65.38;101277.84;2593615;22;20171;-67
2022/04/27 04:11:46;;;;;;;12.03;3.40;;;;;;;14.27;65.28;101305.16;2608298;22;20226;-67
2022/04/27 04:12:47;;;;;;;19.30;4.53;;;;;;;14.32;65.16;101299.81;2607951;22;20226;-67
2022/04/27 04:13:47;;;;;;;14.33;4.40;;;;;;;14.43;65.15;101310.66;2607874;22;20155;-67
2022/04/27 04:14:48;;;;;;;17.23;4.40;;;;;;;13.99;64.87;101247.41;2607971;22;20519;-67
2022/04/27 04:15:49;;;;;;;14.10;3.87;;;;;;;14.47;64.86;101316.94;2607707;22;20146;-67
2022/04/27 04:16:50;;;;;;;16.07;4.10;;;;;;;14.39;64.61;101299.63;2607480;22;20158;-67
2022/04/27 04:17:50;;;;;;;18.03;4.23;;;;;;;14.50;64.66;101316.81;2608305;22;20378;-67
2022/04/27 04:18:51;;;;;;;12.77;4.07;;;;;;;14.03;64.78;101239.72;2607503;22;20158;-67
2022/04/27 04:19:51;;;;;;;15.07;3.67;;;;;;;14.18;64.53;101261.16;2608086;22;20215;-67
2022/04/27 04:20:52;;;;;;;15.03;3.90;;;;;;;14.53;64.74;101324.31;2606855;22;20152;-67
2022/04/27 04:21:52;;;;;;;12.93;4.20;;;;;;;14.57;64.68;101321.41;2608165;22;20220;-67
2022/04/27 04:22:53;;;;;;;14.57;3.73;;;;;;;14.33;64.82;101281.88;2606961;22;20190;-67
2022/04/27 04:23:53;;;;;;;14.17;4.13;;;;;;;14.57;64.80;101321.41;2607859;22;20233;-67
2022/04/27 04:28:51;;;;;;;6.37;3.40;;;;;;;14.64;65.02;101327.56;2607416;22;20378;-67
2022/04/27 04:29:52;;;;;;;9.30;3.70;;;;;;;14.71;65.10;101330.13;2607938;22;20382;-67
2022/04/27 04:30:52;;;;;;;11.73;4.67;;;;;;;14.72;65.19;101330.94;2607314;22;20932;-67
2022/04/27 04:31:53;;;;;;;12.47;8.43;;;;;;;14.25;65.41;101257.44;2608282;22;20499;-67
2022/04/27 04:32:53;;;;;;;11.30;7.10;;;;;;;14.75;65.21;101330.06;2607549;22;20146;-67
2022/04/27 04:33:54;;;;;;;12.57;6.70;;;;;;;14.72;65.66;101322.56;2607468;22;20161;-67
2022/04/27 04:34:54;;;;;;;11.47;6.10;;;;;;;14.75;65.43;101324.47;2607447;22;20222;-67
2022/04/27 04:35:59;;;;;;;11.80;8.23;;;;;;;14.69;65.61;101317.84;2607795;22;20149;-67
2022/04/27 04:36:59;;;;;;;16.80;9.63;;;;;;;14.87;65.54;101334.88;2607124;22;20669;-66
2022/04/27 04:38:00;;;;;;;11.23;7.13;;;;;;;14.85;65.93;101328.97;2608031;22;20751;-67
2022/04/27 04:39:00;;;;;;;11.67;6.70;;;;;;;14.91;66.04;101336.31;2607260;22;20707;-67
2022/04/27 04:40:01;;;;;;;18.67;5.50;;;;;;;14.93;66.00;101341.47;2607888;22;20150;-67
2022/04/27 04:41:01;;;;;;;9.90;4.07;;;;;;;14.61;65.78;101289.38;2606836;22;20202;-67
2022/04/27 04:42:02;;;;;;;11.00;4.53;;;;;;;14.96;65.72;101337.78;2607627;22;20680;-67
2022/04/27 04:43:03;;;;;;;14.17;5.50;;;;;;;14.91;65.37;101332.75;2607277;22;20185;-67
2022/04/27 04:44:03;;;;;;;14.97;5.57;;;;;;;14.99;65.50;101337.66;2607225;22;20639;-67
2022/04/27 04:45:04;;;;;;;12.17;4.80;;;;;;;15.01;65.45;101343.59;2606642;22;20162;-67
2022/04/27 04:46:05;;;;;;;14.27;5.77;;;;;;;14.85;65.02;101320.59;2607185;22;20146;-66
2022/04/27 04:47:06;;;;;;;17.00;7.73;;;;;;;14.97;64.83;101336.56;2593179;22;20432;-66
2022/04/27 04:48:08;;;;;;;17.20;6.10;;;;;;;15.06;64.83;101345.81;2590597;22;20244;-67
2022/04/27 04:49:08;;;;;;;15.17;5.90;;;;;;;15.11;64.36;101350.09;2606584;22;20206;-67
2022/04/27 04:50:10;;;;;;;16.13;5.07;;;;;;;15.14;64.48;101357.56;2606610;22;20550;-67
2022/04/27 04:51:11;;;;;;;21.67;5.40;;;;;;;14.75;64.16;101277.81;2603112;22;20149;-67
2022/04/27 04:52:12;;;;;;;19.33;5.07;;;;;;;15.14;64.09;101349.19;2599310;22;20445;-67
2022/04/27 04:53:12;;;;;;;18.47;5.90;;;;;;;14.49;63.93;101236.41;2585424;22;20538;-67